Time;durP1;ratioP1;P1;durP2;ratioP2;P2;SDS_P1;SDS_P2;PMS_P1;PMS_P2;Temp;Humidity;BMP_temperature;BMP_pressure;BME280_temperature;BME280_humidity;BME280_pressure;Samples;Min_cycle;Max_cycle;Signal;HPM_P1;HPM_P2
2022/11/04 00:00:06;;;;;;;3.43;1.67;;;;;;;9.52;100.00;99438.03;687785;28;1223;-66
2022/11/04 00:00:27;;;;;;;3.65;1.60;;;;;;;9.54;100.00;99438.00;687635;28;1163;-67
2022/11/04 00:00:47;;;;;;;3.25;1.55;;;;;;;9.54;100.00;99444.09;686726;28;4676;-66
2022/11/04 00:01:08;;;;;;;3.97;1.57;;;;;;;9.50;100.00;99445.03;687061;28;1279;-66
2022/11/04 00:01:28;;;;;;;3.47;1.60;;;;;;;9.61;100.00;99447.44;684580;28;1509;-67
2022/11/04 00:01:49;;;;;;;3.30;1.60;;;;;;;9.75;100.00;99439.31;681962;28;1345;-67
2022/11/04 00:02:09;;;;;;;3.65;1.67;;;;;;;9.81;100.00;99446.16;682050;28;1446;-67
2022/11/04 00:02:29;;;;;;;3.57;1.70;;;;;;;9.80;100.00;99447.91;681809;29;1275;-67
2022/11/04 00:02:50;;;;;;;4.20;1.60;;;;;;;9.82;100.00;99443.50;681380;28;1346;-66
2022/11/04 00:03:10;;;;;;;4.60;1.70;;;;;;;9.79;100.00;99447.91;684542;28;1240;-66
2022/11/04 00:03:30;;;;;;;4.87;1.70;;;;;;;9.75;100.00;99446.28;687454;28;1390;-66
2022/11/04 00:03:52;;;;;;;3.38;1.60;;;;;;;9.67;100.00;99442.06;686812;28;4387;-67
2022/11/04 00:04:14;;;;;;;3.40;1.67;;;;;;;9.58;100.00;99442.28;687466;28;1469;-66
2022/11/04 00:04:35;;;;;;;3.78;1.70;;;;;;;9.56;100.00;99453.63;687655;28;1413;-66
2022/11/04 00:04:55;;;;;;;3.38;1.52;;;;;;;9.58;100.00;99446.63;684117;28;2259;-66
2022/11/04 00:05:15;;;;;;;2.97;1.60;;;;;;;9.49;100.00;99443.31;685768;28;5018;-67
2022/11/04 00:05:36;;;;;;;3.23;1.60;;;;;;;9.69;100.00;99442.03;687925;28;1139;-65
2022/11/04 00:06:00;;;;;;;3.28;1.50;;;;;;;9.83;100.00;99442.63;687565;28;1211;-66
2022/11/04 00:06:20;;;;;;;3.70;1.60;;;;;;;9.81;100.00;99439.16;686973;28;1151;-66
2022/11/04 00:06:41;;;;;;;4.60;1.83;;;;;;;9.80;100.00;99442.69;689750;28;1282;-66
2022/11/04 00:08:22;;;;;;;5.15;2.00;;;;;;;9.76;100.00;99442.78;689007;28;4367;-67
2022/11/04 00:08:23;;;;;;;3.65;1.60;;;;;;;9.83;100.00;99439.13;689714;28;1117;-66
2022/11/04 00:08:52;;;;;;;3.92;1.65;;;;;;;9.86;100.00;99442.56;687649;28;1251;-66
2022/11/04 00:09:19;;;;;;;3.83;1.60;;;;;;;9.82;100.00;99443.50;686632;28;1464;-66
2022/11/04 00:09:39;;;;;;;6.07;2.00;;;;;;;9.80;100.00;99447.91;686684;28;1903;-66
2022/11/04 00:09:59;;;;;;;3.83;1.67;;;;;;;9.76;100.00;99441.03;687286;28;4405;-67
2022/11/04 00:12:23;;;;;;;3.37;1.70;;;;;;;9.71;100.00;99448.94;687326;28;1140;-66
2022/11/04 00:12:23;;;;;;;3.88;1.50;;;;;;;9.67;100.00;99452.50;687522;28;1202;-67
2022/11/04 00:12:44;;;;;;;3.53;1.40;;;;;;;9.79;100.00;99440.97;687441;28;1227;-67
2022/11/04 00:13:04;;;;;;;2.60;1.40;;;;;;;9.86;100.00;99446.94;686754;28;4321;-67
2022/11/04 00:13:28;;;;;;;3.20;1.50;;;;;;;9.80;100.00;99455.75;687210;28;1282;-66
2022/11/04 00:13:48;;;;;;;2.40;1.30;;;;;;;9.70;100.00;99448.97;687579;28;1057;-65
2022/11/04 00:14:09;;;;;;;2.67;1.40;;;;;;;9.81;100.00;99443.53;687188;28;1657;-67
2022/11/04 00:14:31;;;;;;;3.38;1.35;;;;;;;9.84;100.00;99453.91;687114;28;1345;-67
2022/11/04 00:14:52;;;;;;;3.22;1.50;;;;;;;9.80;100.00;99453.13;687544;28;1251;-67
2022/11/04 00:17:23;;;;;;;2.90;1.50;;;;;;;9.73;100.00;99455.91;686346;28;1378;-66
2022/11/04 00:17:43;;;;;;;2.15;1.20;;;;;;;9.64;100.00;99455.19;687542;28;1174;-67
2022/11/04 00:18:03;;;;;;;2.63;1.40;;;;;;;9.75;100.00;99456.72;687624;28;1104;-67
2022/11/04 00:18:24;;;;;;;1.93;1.30;;;;;;;9.77;100.00;99455.78;687549;28;1072;-67
2022/11/04 00:18:44;;;;;;;2.97;1.33;;;;;;;9.77;100.00;99463.63;687805;28;1271;-66
2022/11/04 00:19:04;;;;;;;3.10;1.30;;;;;;;9.68;100.00;99461.22;686900;28;4386;-67
2022/11/04 00:19:25;;;;;;;3.23;1.30;;;;;;;9.65;100.00;99461.25;687072;28;1272;-67
2022/11/04 00:28:56;;;;;;;2.55;1.33;;;;;;;9.63;100.00;99476.94;686577;28;1164;-66
2022/11/04 00:29:17;;;;;;;3.10;1.30;;;;;;;9.67;100.00;99482.97;687299;28;1203;-67
2022/11/04 00:29:37;;;;;;;2.30;1.23;;;;;;;9.67;100.00;99480.38;687160;28;1049;-67
2022/11/04 00:29:58;;;;;;;2.53;1.30;;;;;;;9.67;100.00;99483.81;686803;28;1204;-66
2022/11/04 00:30:18;;;;;;;3.40;1.30;;;;;;;9.69;100.00;99495.09;683782;28;1426;-68
2022/11/04 00:30:38;;;;;;;3.53;1.50;;;;;;;9.65;100.00;99487.34;684627;28;1223;-67
2022/11/04 00:33:36;;;;;;;2.35;1.20;;;;;;;9.69;100.00;99489.88;687718;28;1230;-67
2022/11/04 00:33:58;;;;;;;2.27;1.10;;;;;;;9.82;100.00;99493.09;686722;28;4374;-67
2022/11/04 00:34:18;;;;;;;2.75;1.20;;;;;;;9.83;100.00;99489.63;686954;28;1254;-68
2022/11/04 00:34:38;;;;;;;2.47;1.17;;;;;;;9.80;100.00;99497.50;687743;28;1108;-67
2022/11/04 00:34:59;;;;;;;2.40;1.20;;;;;;;9.78;100.00;99491.44;687674;28;1144;-67
2022/11/04 00:35:20;;;;;;;1.93;1.10;;;;;;;9.83;100.00;99484.38;687470;28;1207;-67
2022/11/04 00:35:47;;;;;;;2.20;1.02;;;;;;;9.87;100.00;99493.88;686849;28;1302;-68
2022/11/04 00:36:07;;;;;;;2.03;1.10;;;;;;;9.90;100.00;99487.75;686412;28;1307;-67
2022/11/04 00:36:28;;;;;;;2.20;1.15;;;;;;;9.98;100.00;99488.44;687310;28;1981;-66
2022/11/04 00:36:48;;;;;;;1.93;1.20;;;;;;;10.05;100.00;99489.13;686754;28;4523;-67
2022/11/04 00:37:08;;;;;;;2.40;1.10;;;;;;;10.03;100.00;99489.19;686069;28;1255;-67
2022/11/04 00:37:28;;;;;;;3.00;1.10;;;;;;;9.99;100.00;99489.28;687117;28;1290;-67
2022/11/04 00:37:49;;;;;;;3.00;1.10;;;;;;;9.87;100.00;99487.78;687422;28;1175;-67
2022/11/04 00:38:09;;;;;;;4.95;1.30;;;;;;;9.94;100.00;99483.28;686099;28;1401;-67
2022/11/04 00:38:29;;;;;;;4.83;1.30;;;;;;;9.88;100.00;99489.50;687596;28;1231;-67
2022/11/04 00:38:50;;;;;;;2.47;1.20;;;;;;;9.84;100.00;99483.50;687467;28;1290;-67
2022/11/04 00:39:10;;;;;;;2.30;1.20;;;;;;;9.82;100.00;99493.09;687337;28;1408;-67
2022/11/04 00:39:31;;;;;;;2.87;1.27;;;;;;;9.77;100.00;99492.31;687715;28;1223;-68
2022/11/04 00:39:51;;;;;;;2.35;1.33;;;;;;;9.83;100.00;99489.63;686977;28;5680;-68
2022/11/04 00:40:14;;;;;;;2.67;1.40;;;;;;;9.81;100.00;99488.75;689426;28;1456;-67
2022/11/04 00:40:35;;;;;;;4.13;1.38;;;;;;;9.81;100.00;99480.94;690090;28;1562;-67
2022/11/04 00:40:55;;;;;;;2.77;1.30;;;;;;;9.72;100.00;99491.59;689890;28;1148;-68
2022/11/04 00:41:25;;;;;;;2.30;1.20;;;;;;;9.75;100.00;99491.50;689692;28;1167;-67
2022/11/04 00:41:45;;;;;;;2.97;1.20;;;;;;;9.87;100.00;99488.66;689798;28;1310;-67
2022/11/04 00:42:05;;;;;;;3.38;1.20;;;;;;;9.82;100.00;99497.47;688111;28;1033;-67
2022/11/04 00:42:26;;;;;;;2.77;1.17;;;;;;;9.79;100.00;99498.41;687112;28;1056;-67
2022/11/04 00:42:46;;;;;;;2.60;1.20;;;;;;;9.75;100.00;99491.50;687165;28;4460;-69
2022/11/04 00:43:06;;;;;;;2.83;1.25;;;;;;;9.85;100.00;99490.41;687442;28;1263;-68
2022/11/04 00:43:29;;;;;;;2.70;1.20;;;;;;;9.84;100.00;99486.13;687195;28;1202;-67
2022/11/04 00:43:49;;;;;;;3.70;1.20;;;;;;;9.80;100.00;99489.69;687363;28;1242;-67
2022/11/04 00:44:10;;;;;;;2.87;1.20;;;;;;;9.89;100.00;99489.47;686509;28;1409;-67
2022/11/04 00:44:30;;;;;;;4.20;1.40;;;;;;;9.95;100.00;99488.47;687150;28;1484;-68
2022/11/04 00:44:50;;;;;;;3.63;1.50;;;;;;;9.93;100.00;99487.66;687184;28;1337;-67
2022/11/04 00:45:11;;;;;;;2.90;1.33;;;;;;;9.91;100.00;99488.59;686981;28;1203;-67
2022/11/04 00:45:31;;;;;;;2.17;1.23;;;;;;;9.93;100.00;99484.19;686950;28;1534;-67
2022/11/04 00:45:52;;;;;;;3.03;1.30;;;;;;;9.91;100.00;99492.03;687799;28;5411;-67
2022/11/04 00:46:12;;;;;;;3.43;1.33;;;;;;;9.91;100.00;99483.38;689614;28;1365;-67
2022/11/04 00:46:33;;;;;;;3.83;1.40;;;;;;;9.87;100.00;99487.78;687026;28;1223;-68
2022/11/04 00:46:54;;;;;;;3.15;1.40;;;;;;;9.79;100.00;99490.56;687584;28;1457;-67
2022/11/04 00:47:14;;;;;;;3.30;1.43;;;;;;;9.74;100.00;99491.56;687104;28;1377;-67
2022/11/04 00:47:34;;;;;;;3.33;1.40;;;;;;;9.70;100.00;99495.97;684559;28;1441;-67
2022/11/04 00:47:54;;;;;;;3.30;1.30;;;;;;;9.63;100.00;99491.75;682006;28;1540;-67
2022/11/04 00:48:15;;;;;;;3.33;1.27;;;;;;;9.58;100.00;99501.41;681389;28;1212;-67
2022/11/04 00:48:35;;;;;;;3.97;1.43;;;;;;;9.60;100.00;99494.44;681484;28;1424;-68
2022/11/04 00:48:56;;;;;;;3.80;1.38;;;;;;;9.70;100.00;99493.34;680157;28;4418;-68
2022/11/04 00:49:16;;;;;;;3.93;1.57;;;;;;;9.85;100.00;99497.41;680854;28;1249;-68
2022/11/04 00:49:36;;;;;;;3.08;1.40;;;;;;;9.83;100.00;99499.16;684645;28;1195;-68
2022/11/04 00:49:57;;;;;;;3.27;1.40;;;;;;;9.77;100.00;99497.53;684833;28;1141;-66
2022/11/04 00:50:17;;;;;;;3.72;1.58;;;;;;;9.79;100.00;99487.06;684735;28;1129;-66
2022/11/04 00:50:38;;;;;;;3.77;1.53;;;;;;;9.82;100.00;99490.50;684476;28;1167;-66
2022/11/04 00:50:58;;;;;;;3.03;1.40;;;;;;;9.80;100.00;99494.03;684378;28;1588;-66
2022/11/04 00:51:20;;;;;;;3.13;1.50;;;;;;;9.77;100.00;99492.31;684658;28;1236;-67
2022/11/04 00:51:40;;;;;;;3.10;1.33;;;;;;;9.67;100.00;99490.81;683972;28;1191;-67
2022/11/04 00:52:01;;;;;;;4.40;1.60;;;;;;;9.57;100.00;99492.75;684227;28;4597;-66
2022/11/04 00:52:21;;;;;;;3.83;1.60;;;;;;;9.52;100.00;99495.41;684210;28;1140;-67
2022/11/04 00:52:41;;;;;;;3.23;1.50;;;;;;;9.54;100.00;99492.81;684296;28;1302;-68
2022/11/04 00:53:03;;;;;;;4.22;1.50;;;;;;;9.70;100.00;99490.75;684802;28;1179;-68
2022/11/04 00:53:23;;;;;;;4.43;1.58;;;;;;;9.72;100.00;99488.97;684674;28;1306;-68
2022/11/04 00:53:44;;;;;;;4.83;1.80;;;;;;;9.68;100.00;99488.16;684765;28;1435;-68
2022/11/04 00:54:05;;;;;;;4.35;1.80;;;;;;;9.63;100.00;99492.59;685586;28;1104;-68
2022/11/04 00:54:25;;;;;;;3.70;1.60;;;;;;;9.72;100.00;99491.59;682745;28;1379;-67
2022/11/04 00:54:46;;;;;;;3.77;1.50;;;;;;;9.75;100.00;99494.13;681970;28;4628;-66
2022/11/04 00:55:07;;;;;;;3.17;1.40;;;;;;;9.73;100.00;99492.44;684548;28;1064;-67
2022/11/04 00:55:28;;;;;;;2.57;1.30;;;;;;;9.65;100.00;99490.84;684523;28;1215;-67
2022/11/04 00:55:48;;;;;;;2.80;1.40;;;;;;;9.63;100.00;99500.44;685970;28;1266;-67
2022/11/04 00:56:08;;;;;;;2.47;1.35;;;;;;;9.58;100.00;99493.59;684074;28;1260;-67
2022/11/04 00:56:29;;;;;;;3.37;1.40;;;;;;;9.57;100.00;99486.63;681790;28;1977;-67
2022/11/04 00:56:49;;;;;;;3.45;1.50;;;;;;;9.67;100.00;99498.63;683704;28;1171;-68
2022/11/04 00:57:13;;;;;;;2.70;1.50;;;;;;;9.63;100.00;99502.19;683951;28;1341;-67
2022/11/04 00:57:33;;;;;;;3.58;1.52;;;;;;;9.59;100.00;99496.16;684563;28;1559;-68
2022/11/04 00:57:57;;;;;;;3.03;1.30;;;;;;;9.59;100.00;99500.53;684643;28;5321;-68
2022/11/04 00:58:17;;;;;;;2.70;1.30;;;;;;;9.68;100.00;99505.59;687117;28;1262;-67
2022/11/04 00:58:37;;;;;;;2.77;1.40;;;;;;;9.80;100.00;99501.84;687598;28;1144;-68
2022/11/04 00:58:58;;;;;;;2.70;1.40;;;;;;;9.88;100.00;99507.78;687077;28;1223;-68
2022/11/04 00:59:19;;;;;;;2.22;1.30;;;;;;;9.89;100.00;99499.06;686945;28;1215;-68
2022/11/04 00:59:40;;;;;;;2.57;1.20;;;;;;;9.89;100.00;99502.53;687729;28;1250;-68
2022/11/04 01:00:00;;;;;;;3.00;1.30;;;;;;;9.98;100.00;99503.22;687074;28;1167;-68
2022/11/04 01:00:21;;;;;;;3.60;1.60;;;;;;;10.05;100.00;99502.19;687271;28;1242;-67
2022/11/04 01:00:41;;;;;;;2.80;1.30;;;;;;;10.10;100.00;99502.97;687605;28;1049;-67
2022/11/04 01:01:07;;;;;;;3.63;1.27;;;;;;;10.15;100.00;99505.47;686267;28;4668;-67
2022/11/04 01:01:27;;;;;;;3.45;1.30;;;;;;;10.08;100.00;99496.94;686610;28;3698;-68
2022/11/04 01:01:48;;;;;;;3.20;1.30;;;;;;;10.00;100.00;99506.69;687323;28;1246;-71
2022/11/04 01:02:09;;;;;;;3.83;1.50;;;;;;;9.94;100.00;99506.78;686942;28;1317;-67
2022/11/04 01:02:30;;;;;;;3.15;1.30;;;;;;;9.98;100.00;99504.09;687373;28;1256;-68
2022/11/04 01:02:50;;;;;;;2.37;1.40;;;;;;;9.96;100.00;99507.63;686852;28;1283;-68
2022/11/04 01:03:10;;;;;;;2.47;1.42;;;;;;;9.89;100.00;99510.34;686552;28;1376;-67
2022/11/04 01:03:31;;;;;;;3.03;1.30;;;;;;;9.97;100.00;99506.72;687133;28;1195;-68
2022/11/04 01:03:52;;;;;;;3.13;1.40;;;;;;;10.01;100.00;99505.75;686906;28;4666;-67
2022/11/04 01:04:13;;;;;;;2.40;1.40;;;;;;;10.08;100.00;99507.38;687203;28;1389;-67
2022/11/04 01:04:33;;;;;;;2.78;1.30;;;;;;;10.08;100.00;99520.44;687602;28;1297;-68
2022/11/04 01:04:54;;;;;;;2.88;1.30;;;;;;;10.05;100.00;99525.69;686870;28;1413;-63
2022/11/04 01:05:14;;;;;;;3.80;1.50;;;;;;;10.04;100.00;99519.63;686490;28;4832;-68
2022/11/04 01:05:36;;;;;;;3.70;1.55;;;;;;;9.99;100.00;99518.00;687697;28;1592;-68
2022/11/04 01:05:57;;;;;;;3.05;1.50;;;;;;;9.94;100.00;99523.34;687488;28;1123;-67
2022/11/04 01:06:19;;;;;;;3.58;1.40;;;;;;;9.82;100.00;99523.56;687065;28;1155;-67
2022/11/04 01:06:39;;;;;;;2.78;1.35;;;;;;;9.80;100.00;99515.78;687553;28;1259;-68
2022/11/04 01:07:01;;;;;;;2.63;1.30;;;;;;;9.77;100.00;99526.25;686817;28;4378;-68
2022/11/04 01:07:21;;;;;;;3.13;1.30;;;;;;;9.76;100.00;99519.34;686570;28;1124;-68
2022/11/04 01:07:42;;;;;;;3.42;1.38;;;;;;;9.79;100.00;99519.28;687542;28;1303;-70
2022/11/04 01:08:02;;;;;;;2.83;1.40;;;;;;;9.81;100.00;99516.63;687419;28;1303;-68
2022/11/04 01:08:22;;;;;;;3.10;1.40;;;;;;;9.78;100.00;99522.75;687111;28;1180;-68
2022/11/04 01:08:43;;;;;;;2.97;1.30;;;;;;;9.87;100.00;99527.81;687337;28;1231;-68
2022/11/04 01:09:09;;;;;;;3.17;1.45;;;;;;;9.91;100.00;99518.16;687479;28;1246;-68
2022/11/04 01:09:29;;;;;;;4.03;1.33;;;;;;;9.96;100.00;99521.53;686908;28;1258;-68
2022/11/04 01:09:50;;;;;;;3.27;1.57;;;;;;;9.97;100.00;99523.25;687072;28;4334;-68
2022/11/04 01:10:10;;;;;;;3.35;1.52;;;;;;;10.03;100.00;99528.34;687060;28;1239;-68
2022/11/04 01:10:30;;;;;;;3.70;1.40;;;;;;;10.02;100.00;99526.66;687473;28;1255;-69
2022/11/04 01:10:51;;;;;;;2.83;1.43;;;;;;;10.03;100.00;99532.72;687626;28;1250;-67
2022/11/04 01:11:12;;;;;;;2.95;1.45;;;;;;;9.94;100.00;99533.78;687291;28;1303;-68
2022/11/04 01:11:33;;;;;;;2.65;1.40;;;;;;;9.88;100.00;99539.97;687149;28;1496;-68
2022/11/04 01:11:53;;;;;;;3.50;1.60;;;;;;;9.81;100.00;99545.34;687432;28;1255;-68
2022/11/04 01:12:13;;;;;;;3.50;1.60;;;;;;;9.73;100.00;99537.66;687364;28;1006;-68
2022/11/04 01:12:34;;;;;;;3.35;1.60;;;;;;;9.69;100.00;99542.09;687422;28;1493;-68
2022/11/04 01:12:54;;;;;;;3.70;1.80;;;;;;;9.68;100.00;99544.72;686669;28;4438;-67
2022/11/04 01:13:14;;;;;;;3.63;1.55;;;;;;;9.75;100.00;99550.66;686998;28;1480;-68
2022/11/04 01:13:36;;;;;;;2.80;1.40;;;;;;;9.76;100.00;99545.44;686869;28;1508;-67
2022/11/04 01:13:57;;;;;;;3.30;1.60;;;;;;;9.75;100.00;99543.72;686131;28;1124;-68
2022/11/04 01:14:17;;;;;;;2.90;1.50;;;;;;;9.86;100.00;99546.13;686965;28;1246;-68
2022/11/04 01:14:38;;;;;;;2.17;1.30;;;;;;;9.87;100.00;99548.69;687345;28;1170;-67
2022/11/04 01:15:02;;;;;;;3.28;1.40;;;;;;;9.88;100.00;99553.03;689944;28;1211;-68
2022/11/04 01:15:22;;;;;;;3.08;1.40;;;;;;;9.91;100.00;99546.03;688406;28;1266;-67
2022/11/04 01:15:43;;;;;;;3.05;1.40;;;;;;;9.92;100.00;99548.59;687222;28;1187;-68
2022/11/04 01:16:06;;;;;;;3.08;1.50;;;;;;;10.03;100.00;99548.38;687030;28;4268;-68
2022/11/04 01:16:27;;;;;;;3.45;1.30;;;;;;;10.04;100.00;99544.88;687192;28;2013;-68
2022/11/04 01:16:49;;;;;;;3.83;1.30;;;;;;;9.90;100.00;99547.78;687420;28;1286;-68
2022/11/04 01:17:09;;;;;;;3.25;1.40;;;;;;;9.75;100.00;99545.44;687139;28;1294;-68
2022/11/04 01:17:29;;;;;;;2.90;1.40;;;;;;;9.71;100.00;99545.50;688284;28;1310;-67
2022/11/04 01:17:50;;;;;;;3.07;1.40;;;;;;;9.70;100.00;99542.94;687995;28;1425;-67
2022/11/04 01:18:10;;;;;;;2.58;1.50;;;;;;;9.65;100.00;99547.38;686199;28;1394;-67
2022/11/04 01:18:31;;;;;;;3.13;1.60;;;;;;;9.66;100.00;99549.97;685391;28;1335;-68
2022/11/04 01:18:52;;;;;;;2.60;1.30;;;;;;;9.71;100.00;99542.91;684889;28;4948;-67
2022/11/04 01:19:13;;;;;;;3.40;1.58;;;;;;;9.76;100.00;99545.44;686865;28;1226;-68
2022/11/04 01:19:33;;;;;;;2.90;1.70;;;;;;;9.78;100.00;99542.78;687331;28;1499;-66
2022/11/04 01:19:53;;;;;;;4.20;1.65;;;;;;;9.70;100.00;99543.78;686953;28;1242;-66
2022/11/04 01:20:14;;;;;;;5.53;1.57;;;;;;;9.68;100.00;99547.34;687346;28;1351;-68
2022/11/04 01:20:34;;;;;;;5.13;1.53;;;;;;;9.73;100.00;99545.47;687265;28;1200;-67
2022/11/04 01:21:00;;;;;;;3.03;1.43;;;;;;;9.78;100.00;99548.88;687474;28;1508;-66
2022/11/04 01:21:20;;;;;;;3.42;1.67;;;;;;;9.76;100.00;99548.06;687227;28;1124;-67
2022/11/04 01:21:41;;;;;;;3.80;1.57;;;;;;;9.76;100.00;99550.66;687326;28;1135;-68
2022/11/04 01:22:01;;;;;;;3.50;1.50;;;;;;;9.88;100.00;99549.53;686291;28;4378;-68
2022/11/04 01:22:21;;;;;;;3.80;1.50;;;;;;;9.92;100.00;99547.75;686525;28;1271;-67
2022/11/04 01:22:42;;;;;;;4.37;1.70;;;;;;;9.92;100.00;99550.34;686984;28;1199;-67
2022/11/04 01:23:02;;;;;;;3.28;1.60;;;;;;;9.92;100.00;99552.97;687538;28;986;-68
2022/11/04 01:23:22;;;;;;;3.40;1.70;;;;;;;9.93;100.00;99547.72;686881;28;1120;-67
2022/11/04 01:23:43;;;;;;;4.07;1.60;;;;;;;9.81;100.00;99550.56;687547;28;1305;-68
2022/11/04 01:24:04;;;;;;;3.65;1.52;;;;;;;9.76;100.00;99549.78;686495;28;1156;-67
2022/11/04 01:24:25;;;;;;;3.30;1.40;;;;;;;9.75;100.00;99546.31;687277;28;1251;-68
2022/11/04 01:24:45;;;;;;;4.00;1.60;;;;;;;9.71;100.00;99548.13;687528;28;4394;-66
2022/11/04 01:25:07;;;;;;;3.50;1.60;;;;;;;9.74;100.00;99546.34;687479;28;1191;-67
2022/11/04 01:25:27;;;;;;;3.97;1.70;;;;;;;9.70;100.00;99555.97;686358;28;1330;-68
2022/11/04 01:25:49;;;;;;;3.85;1.63;;;;;;;9.72;100.00;99549.00;687221;28;1326;-67
2022/11/04 01:26:29;;;;;;;3.58;1.67;;;;;;;9.74;100.00;99547.19;687028;28;1244;-67
2022/11/04 01:26:49;;;;;;;3.13;1.70;;;;;;;9.74;100.00;99552.41;686622;28;1331;-68
2022/11/04 01:27:09;;;;;;;3.28;1.60;;;;;;;9.73;100.00;99555.91;687314;28;1206;-67
2022/11/04 01:27:30;;;;;;;3.00;1.70;;;;;;;9.71;100.00;99545.50;686614;28;1306;-67
2022/11/04 01:27:50;;;;;;;3.10;1.70;;;;;;;9.71;100.00;99557.72;686886;28;4453;-68
2022/11/04 01:28:10;;;;;;;3.67;1.70;;;;;;;9.71;100.00;99552.50;686511;28;1167;-68
2022/11/04 01:28:31;;;;;;;3.37;1.80;;;;;;;9.74;100.00;99555.03;687204;28;1199;-68
2022/11/04 01:28:56;;;;;;;3.33;1.80;;;;;;;9.77;100.00;99554.13;687354;28;1504;-68
2022/11/04 01:29:16;;;;;;;3.50;1.73;;;;;;;9.81;100.00;99551.41;686709;28;1164;-68
2022/11/04 01:29:37;;;;;;;3.50;1.77;;;;;;;9.81;100.00;99554.03;687317;28;1104;-68
2022/11/04 01:29:57;;;;;;;4.15;2.00;;;;;;;9.79;100.00;99558.44;688023;28;1218;-68
2022/11/04 01:30:17;;;;;;;4.23;1.90;;;;;;;9.78;100.00;99561.91;689369;28;1116;-69
2022/11/04 01:30:38;;;;;;;3.80;1.83;;;;;;;9.87;100.00;99563.47;688677;28;1199;-68
2022/11/04 01:30:58;;;;;;;4.47;1.90;;;;;;;9.87;100.00;99558.25;688690;28;4467;-68
2022/11/04 01:31:21;;;;;;;3.73;1.73;;;;;;;9.82;100.00;99566.19;686583;28;1085;-68
2022/11/04 01:31:42;;;;;;;4.10;1.80;;;;;;;9.81;100.00;99563.63;687254;28;1172;-68
2022/11/04 01:32:02;;;;;;;3.20;1.70;;;;;;;9.80;100.00;99570.59;687192;28;1151;-68
2022/11/04 01:32:22;;;;;;;3.90;1.70;;;;;;;9.74;100.00;99567.22;686686;28;1111;-68
2022/11/04 01:32:43;;;;;;;4.00;1.70;;;;;;;9.69;100.00;99564.69;687388;28;1219;-68
2022/11/04 01:33:03;;;;;;;3.20;1.60;;;;;;;9.75;100.00;99559.38;687330;28;1249;-68
2022/11/04 01:33:24;;;;;;;3.40;1.77;;;;;;;9.73;100.00;99563.75;687123;28;1187;-68
2022/11/04 01:33:44;;;;;;;3.73;1.70;;;;;;;9.76;100.00;99566.31;687035;28;1239;-68
2022/11/04 01:34:04;;;;;;;3.25;1.60;;;;;;;9.84;100.00;99559.19;684249;28;4380;-69
2022/11/04 01:34:25;;;;;;;4.03;1.80;;;;;;;9.92;100.00;99561.66;684285;28;1248;-67
2022/11/04 01:34:45;;;;;;;3.80;1.73;;;;;;;9.88;100.00;99560.00;684938;28;1247;-68
2022/11/04 01:35:07;;;;;;;3.93;1.77;;;;;;;9.84;100.00;99566.16;684284;28;2022;-67
2022/11/04 01:35:27;;;;;;;4.07;1.90;;;;;;;9.86;100.00;99567.84;684778;28;1308;-68
2022/11/04 01:35:47;;;;;;;2.83;1.63;;;;;;;9.85;100.00;99565.28;687126;28;1394;-68
2022/11/04 01:36:09;;;;;;;3.07;1.70;;;;;;;9.82;100.00;99560.97;686930;28;1279;-68
2022/11/04 01:36:30;;;;;;;3.80;1.70;;;;;;;9.77;100.00;99560.19;685751;28;1981;-68
2022/11/04 01:36:50;;;;;;;3.03;1.60;;;;;;;9.73;100.00;99568.97;686074;28;4328;-68
2022/11/04 01:37:10;;;;;;;3.13;1.80;;;;;;;9.68;100.00;99563.84;684587;28;1398;-68
2022/11/04 01:37:31;;;;;;;4.13;1.90;;;;;;;9.66;100.00;99564.75;684775;28;1236;-68
2022/11/04 01:37:51;;;;;;;4.50;1.80;;;;;;;9.66;100.00;99569.97;684579;28;1365;-68
2022/11/04 01:38:11;;;;;;;3.50;1.70;;;;;;;9.61;100.00;99574.41;683876;28;1506;-68
2022/11/04 01:38:32;;;;;;;4.30;1.70;;;;;;;9.64;100.00;99567.41;683006;28;1314;-68
2022/11/04 01:38:55;;;;;;;3.90;1.80;;;;;;;9.66;100.00;99562.16;684734;28;1279;-68
2022/11/04 01:39:15;;;;;;;4.10;1.70;;;;;;;9.76;100.00;99571.53;684435;28;1098;-68
2022/11/04 01:39:35;;;;;;;3.83;1.70;;;;;;;9.87;100.00;99563.47;684538;28;1584;-69
2022/11/04 01:39:56;;;;;;;3.73;1.80;;;;;;;9.84;100.00;99566.16;684046;28;4269;-68
2022/11/04 01:40:16;;;;;;;3.07;1.70;;;;;;;9.83;100.00;99565.31;684612;28;1215;-68
2022/11/04 01:40:38;;;;;;;3.20;1.60;;;;;;;9.91;100.00;99565.13;684360;28;1168;-68
2022/11/04 01:40:59;;;;;;;4.13;1.65;;;;;;;9.85;100.00;99563.50;684670;28;1143;-68
2022/11/04 01:41:26;;;;;;;3.40;1.65;;;;;;;9.83;100.00;99561.81;684374;28;1132;-68
2022/11/04 01:41:47;;;;;;;4.88;1.80;;;;;;;9.81;100.00;99563.63;684556;28;1309;-67
2022/11/04 01:42:12;;;;;;;4.47;1.77;;;;;;;9.86;100.00;99562.63;684367;28;1336;-68
2022/11/04 01:42:32;;;;;;;3.05;1.55;;;;;;;9.93;100.00;99560.75;684715;28;1402;-68
2022/11/04 01:42:52;;;;;;;3.37;1.70;;;;;;;9.90;100.00;99566.06;684003;28;4408;-69
2022/11/04 01:43:15;;;;;;;3.08;1.60;;;;;;;9.91;100.00;99561.69;684622;28;1465;-68
2022/11/04 01:43:54;;;;;;;3.50;1.70;;;;;;;9.85;100.00;99567.88;684700;28;1394;-67
2022/11/04 01:44:53;;;;;;;3.78;1.67;;;;;;;9.95;100.00;99565.94;684251;28;1443;-67
2022/11/04 01:45:16;;;;;;;3.83;1.85;;;;;;;9.94;100.00;99562.50;684328;28;1279;-68
2022/11/04 01:45:37;;;;;;;4.28;1.73;;;;;;;9.99;100.00;99573.69;684821;28;1147;-68
2022/11/04 01:45:59;;;;;;;3.80;1.63;;;;;;;10.06;100.00;99563.97;684181;28;4296;-68
2022/11/04 01:46:32;;;;;;;3.85;1.80;;;;;;;10.03;100.00;99564.06;684496;28;1199;-69
2022/11/04 01:46:53;;;;;;;3.90;1.70;;;;;;;10.11;100.00;99562.16;684340;28;1329;-69
2022/11/04 01:47:20;;;;;;;3.63;1.80;;;;;;;10.01;100.00;99565.81;684097;28;1413;-69
2022/11/04 01:47:48;;;;;;;3.83;1.70;;;;;;;9.94;100.00;99569.44;683737;28;1223;-68
2022/11/04 01:48:19;;;;;;;3.30;1.80;;;;;;;9.89;100.00;99566.94;684004;28;1050;-68
2022/11/04 01:48:40;;;;;;;3.47;1.70;;;;;;;9.93;100.00;99568.59;682148;28;1152;-68
2022/11/04 01:49:07;;;;;;;3.67;1.65;;;;;;;9.89;100.00;99572.16;682661;28;4490;-68
2022/11/04 01:49:38;;;;;;;3.10;1.70;;;;;;;9.94;100.00;99572.06;685334;28;1252;-69
2022/11/04 01:50:09;;;;;;;3.67;1.70;;;;;;;9.78;100.00;99569.75;684433;28;1225;-67
2022/11/04 01:50:31;;;;;;;3.30;1.83;;;;;;;9.73;100.00;99578.56;683716;28;1240;-70
2022/11/04 01:50:53;;;;;;;2.90;1.63;;;;;;;9.73;100.00;99576.78;683799;28;1449;-69
2022/11/04 01:51:14;;;;;;;3.65;1.67;;;;;;;9.70;100.00;99572.50;684173;28;1369;-68
2022/11/04 01:51:39;;;;;;;3.47;1.77;;;;;;;9.66;100.00;99572.59;682307;28;1484;-69
2022/11/04 01:52:07;;;;;;;4.00;1.80;;;;;;;9.66;100.00;99567.38;684832;28;4337;-68
2022/11/04 01:52:38;;;;;;;4.13;1.70;;;;;;;9.61;100.00;99569.19;686717;28;1215;-69
2022/11/04 01:53:08;;;;;;;3.42;1.80;;;;;;;9.70;100.00;99576.84;686613;28;1069;-69
2022/11/04 01:53:36;;;;;;;3.33;1.80;;;;;;;9.82;100.00;99576.63;688879;28;1556;-68
2022/11/04 01:53:57;;;;;;;3.03;1.45;;;;;;;9.94;100.00;99575.53;687958;28;1128;-68
2022/11/04 01:54:17;;;;;;;2.95;1.55;;;;;;;9.91;100.00;99574.72;687376;28;1155;-68
2022/11/04 01:54:39;;;;;;;3.50;1.70;;;;;;;9.85;100.00;99573.94;687437;28;1104;-68
2022/11/04 01:55:06;;;;;;;4.85;1.80;;;;;;;9.79;100.00;99574.09;686323;28;4292;-68
2022/11/04 01:55:30;;;;;;;3.83;1.70;;;;;;;9.83;100.00;99572.25;686846;28;1159;-69
2022/11/04 01:55:54;;;;;;;4.05;1.73;;;;;;;9.80;100.00;99578.41;686818;28;1322;-69
2022/11/04 01:56:15;;;;;;;4.65;1.58;;;;;;;9.87;100.00;99574.81;686959;28;1604;-69
2022/11/04 01:56:38;;;;;;;5.20;1.60;;;;;;;9.83;100.00;99577.47;686908;28;1910;-68
2022/11/04 01:57:01;;;;;;;4.13;1.67;;;;;;;9.89;100.00;99567.78;686550;28;1302;-68
2022/11/04 01:57:29;;;;;;;5.75;1.80;;;;;;;9.91;100.00;99569.50;686131;28;1235;-68
2022/11/04 01:57:54;;;;;;;4.40;1.70;;;;;;;9.91;100.00;99570.34;685548;28;4303;-68
2022/11/04 01:58:17;;;;;;;3.88;1.70;;;;;;;9.93;100.00;99567.72;687102;28;1456;-69
2022/11/04 01:58:43;;;;;;;4.07;1.70;;;;;;;9.82;100.00;99568.81;689604;28;1514;-69
2022/11/04 01:59:07;;;;;;;3.15;1.60;;;;;;;9.77;100.00;99572.38;689986;28;1655;-69
2022/11/04 01:59:35;;;;;;;3.83;1.75;;;;;;;9.78;100.00;99572.34;689146;28;1566;-68
2022/11/04 01:59:59;;;;;;;3.80;1.63;;;;;;;9.84;100.00;99568.75;689821;28;1512;-69
2022/11/04 02:00:20;;;;;;;4.05;1.70;;;;;;;9.85;100.00;99565.28;686560;28;1338;-69
2022/11/04 02:00:41;;;;;;;3.42;1.60;;;;;;;9.82;100.00;99579.25;687381;28;1214;-69
2022/11/04 02:01:01;;;;;;;3.78;1.58;;;;;;;9.75;100.00;99569.81;686611;28;4282;-69